This is the latest recevied weather packets stored in our database for station/object CE4ERM-13. If no packets are shown the sender has not sent any weather packets the latest 10 day(s).
| Time | Temp. | Humidity | Pressure | Rain* | Wind** | Luminosity | Snow |
|---|---|---|---|---|---|---|---|
| 1777648748 | 19.44° C | 50% | 1023.1 hPa | - | - | - | - |
| 1777648644 | 22.78° C | 45% | 1023 hPa | - | - | - | - |
| 1777648043 | 22.78° C | 46% | 1022.8 hPa | - | - | - | - |
| 1777647548 | 19.44° C | 50% | 1025.3 hPa | - | - | - | - |
| 1777646844 | 22.78° C | 46% | 1023.5 hPa | - | - | - | - |
| 1777646347 | 19.44° C | 50% | 1023.1 hPa | - | - | - | - |
| 1777646244 | 22.78° C | 46% | 1022.7 hPa | - | - | - | - |
| 1777645746 | 19.44° C | 50% | 1022.7 hPa | - | - | - | - |
| 1777645043 | 22.22° C | 49% | 1022.2 hPa | - | - | - | - |
| 1777644545 | 19.44° C | 51% | 1023.8 hPa | - | - | - | - |
| 1777644443 | 21.67° C | 49% | 1024.1 hPa | - | - | - | - |
| 1777643944 | 19.44° C | 51% | 1023.6 hPa | - | - | - | - |
| 1777643345 | 18.89° C | 49% | 1022 hPa | - | - | - | - |
| 1777643242 | 21.67° C | 50% | 1022.2 hPa | - | - | - | - |
| 1777642745 | 18.89° C | 50% | 1023.6 hPa | - | - | - | - |
| 1777642642 | 20.56° C | 52% | 1022.1 hPa | - | - | - | - |
| 1777641576 | 21.11° C | 51% | 1021.8 hPa | - | - | - | - |
| 1777641544 | 18.89° C | 48% | 1022.4 hPa | - | - | - | - |
| 1777641441 | 21.11° C | 51% | 1021.8 hPa | - | - | - | - |
| 1777640944 | 18.89° C | 49% | 1021.7 hPa | - | - | - | - |
| 1777640841 | 20° C | 54% | 1022.7 hPa | - | - | - | - |
| 1777640343 | 18.89° C | 49% | 1022.8 hPa | - | - | - | - |
| 1777640240 | 20.56° C | 52% | 1022.5 hPa | - | - | - | - |
| 1777639742 | 18.33° C | 49% | 1026 hPa | - | - | - | - |
| 1777639639 | 20.56° C | 53% | 1022.4 hPa | - | - | - | - |
* Rain since midnight (hover to see other rain measurements)
** Current wind speed in m/s (hover to see current wind gust speed)